Alexander City, Alabama
Current Conditions -  °F | °C
As of 9:15 PM on Saturday 25 Oct 2014 (Local Time) from KALX Reporting Station
Clear Clear  
Wind Chill: 56°   Ceiling: Unl
Heat Index: 56°   Visibility: 10mi
Dew Point: 53°   Wind: 0mph
Humidity: 91%   Direction: NA
Pressure: 30.06"   Gusts: NA
Location:  32.94°N, 85.95°W
Report Text: KALX 260215Z AUTO 00000KT 10SM CLR 13/12 A3006 RMK AO2 T01340119
Loading
Personal Weather Stations






























Interactive Weather Map New forecast layout! Learn more

10-Day Weather Forecast

Advertisements
Track Severe Weather on mobile